createdAt,value
2019-05-09T00:00:43.926Z,11.08
2019-05-09T00:02:46.079Z,11.02
2019-05-09T00:04:48.118Z,10.98
2019-05-09T00:06:50.565Z,11.00
2019-05-09T00:08:53.371Z,10.99
2019-05-09T00:10:55.486Z,11.00
2019-05-09T00:12:57.601Z,11.01
2019-05-09T00:15:00.587Z,10.96
2019-05-09T00:17:03.661Z,10.96
2019-05-09T00:19:06.188Z,10.96
2019-05-09T00:21:13.419Z,10.95
2019-05-09T00:23:15.636Z,10.98
2019-05-09T00:25:17.905Z,11.01
2019-05-09T00:27:19.902Z,11.03
2019-05-09T00:29:34.332Z,11.04
2019-05-09T00:31:53.989Z,11.01
2019-05-09T00:33:58.663Z,11.00
2019-05-09T00:36:00.732Z,11.01
2019-05-09T00:38:07.435Z,11.01
2019-05-09T00:40:09.771Z,11.00
2019-05-09T00:42:13.723Z,10.99
2019-05-09T00:44:23.275Z,10.95
2019-05-09T00:46:43.059Z,10.93
2019-05-09T00:48:57.815Z,10.90
2019-05-09T00:51:03.275Z,10.91
2019-05-09T00:53:04.984Z,10.94
2019-05-09T00:55:07.049Z,10.89
2019-05-09T00:57:13.647Z,10.92
2019-05-09T00:59:15.556Z,10.84
2019-05-09T01:01:17.991Z,10.83
2019-05-09T01:03:19.898Z,10.92
2019-05-09T01:05:23.935Z,10.86
2019-05-09T01:07:26.150Z,10.82
2019-05-09T01:09:28.439Z,10.86
2019-05-09T01:11:30.707Z,10.89
2019-05-09T01:13:34.139Z,10.89
2019-05-09T01:15:37.099Z,10.83
2019-05-09T01:17:38.806Z,10.81
2019-05-09T01:19:43.230Z,10.80
2019-05-09T01:21:45.698Z,10.80
2019-05-09T01:23:47.753Z,10.77
2019-05-09T01:25:49.765Z,10.69
2019-05-09T01:27:53.830Z,10.70
2019-05-09T01:29:56.404Z,10.70
2019-05-09T01:32:00.815Z,10.69
2019-05-09T01:34:16.598Z,10.67
2019-05-09T01:36:18.836Z,10.55
2019-05-09T01:38:23.240Z,10.59
2019-05-09T01:40:25.655Z,10.55
2019-05-09T01:42:27.850Z,10.54
2019-05-09T01:44:29.879Z,10.50
2019-05-09T01:46:33.921Z,10.45
2019-05-09T01:48:35.878Z,10.45
2019-05-09T01:50:37.893Z,10.42
2019-05-09T01:52:40.071Z,10.41
2019-05-09T01:54:43.636Z,10.45
2019-05-09T01:56:45.686Z,10.44
2019-05-09T01:58:47.793Z,10.41
2019-05-09T02:00:49.962Z,10.40
2019-05-09T02:02:54.003Z,10.39
2019-05-09T02:04:56.325Z,10.35
2019-05-09T02:06:58.136Z,10.40
2019-05-09T02:09:03.404Z,10.40
2019-05-09T02:11:05.393Z,10.31
2019-05-09T02:13:08.509Z,10.23
2019-05-09T02:15:19.895Z,10.21
2019-05-09T02:17:58.109Z,10.25
2019-05-09T02:19:48.277Z,10.24
2019-05-09T02:21:50.550Z,10.20
2019-05-09T02:23:53.709Z,10.24
2019-05-09T02:25:55.773Z,10.15
2019-05-09T02:27:57.836Z,10.14
2019-05-09T02:30:00.241Z,10.09
2019-05-09T02:32:04.678Z,10.11
2019-05-09T02:34:06.252Z,10.08
2019-05-09T02:36:09.771Z,10.09
2019-05-09T02:38:12.086Z,10.04
2019-05-09T02:40:14.441Z,10.02
2019-05-09T02:42:19.665Z,10.04
2019-05-09T02:44:20.675Z,9.99
2019-05-09T02:46:38.321Z,10.01
2019-05-09T02:48:39.787Z,9.99
2019-05-09T02:50:41.998Z,9.99
2019-05-09T02:52:44.013Z,9.94
2019-05-09T02:54:49.682Z,9.98
2019-05-09T02:56:50.140Z,10.01
2019-05-09T02:59:04.380Z,9.98
2019-05-09T03:01:18.893Z,10.01
2019-05-09T03:03:29.037Z,9.96
2019-05-09T03:05:30.572Z,9.90
2019-05-09T03:07:52.009Z,9.91
2019-05-09T03:09:53.986Z,9.88
2019-05-09T03:11:58.995Z,9.82
2019-05-09T03:14:00.439Z,9.86
2019-05-09T03:16:09.267Z,9.91
2019-05-09T03:18:11.288Z,9.88
2019-05-09T03:20:33.973Z,9.84
2019-05-09T03:22:39.279Z,9.85
2019-05-09T03:24:40.199Z,9.80
2019-05-09T03:26:45.064Z,9.77
2019-05-09T03:29:08.813Z,9.83
2019-05-09T03:31:13.578Z,9.81
2019-05-09T03:33:19.792Z,9.81
2019-05-09T03:35:20.251Z,9.78
2019-05-09T03:37:21.833Z,9.78
2019-05-09T03:39:24.063Z,9.74
2019-05-09T03:41:28.221Z,9.71
2019-05-09T03:43:30.116Z,9.71
2019-05-09T03:45:34.240Z,9.67
2019-05-09T03:47:47.741Z,9.73
2019-05-09T03:50:10.327Z,9.67
2019-05-09T03:52:12.586Z,9.63
2019-05-09T03:54:14.782Z,9.60
2019-05-09T03:56:20.359Z,9.63
2019-05-09T03:58:22.768Z,9.63
2019-05-09T04:00:24.491Z,9.64
2019-05-09T04:02:28.174Z,9.62
2019-05-09T04:04:30.624Z,9.60
2019-05-09T04:06:33.253Z,9.61
2019-05-09T04:08:37.477Z,9.56
2019-05-09T04:10:39.848Z,9.57
2019-05-09T04:12:53.891Z,9.59
2019-05-09T04:14:47.967Z,9.59
2019-05-09T04:16:50.229Z,9.58
2019-05-09T04:18:52.263Z,9.62
2019-05-09T04:20:54.344Z,9.60
2019-05-09T04:22:59.369Z,9.59
2019-05-09T04:25:00.939Z,9.60
2019-05-09T04:27:29.865Z,9.60
2019-05-09T04:29:32.705Z,9.65
2019-05-09T04:31:34.388Z,9.65
2019-05-09T04:33:38.329Z,9.67
2019-05-09T04:35:40.533Z,9.71
2019-05-09T04:37:42.737Z,9.67
2019-05-09T04:39:44.731Z,9.73
2019-05-09T04:41:48.797Z,9.77
2019-05-09T04:43:50.915Z,9.75
2019-05-09T04:45:58.062Z,9.73
2019-05-09T04:48:00.582Z,9.75
2019-05-09T04:50:02.424Z,9.80
2019-05-09T04:52:04.510Z,9.80
2019-05-09T04:54:07.353Z,9.81
2019-05-09T04:56:18.152Z,9.80
2019-05-09T04:58:20.192Z,9.80
2019-05-09T05:00:29.835Z,9.89
2019-05-09T05:02:40.157Z,9.87
2019-05-09T05:04:42.526Z,9.93
2019-05-09T05:06:44.952Z,9.93
2019-05-09T05:08:47.906Z,9.94
2019-05-09T05:10:50.311Z,10.01
2019-05-09T05:12:52.946Z,10.06
2019-05-09T05:14:54.966Z,10.06
2019-05-09T05:17:06.305Z,10.06
2019-05-09T05:19:01.531Z,10.12
2019-05-09T05:21:03.584Z,10.16
2019-05-09T05:23:18.305Z,10.21
2019-05-09T05:25:20.822Z,10.18
2019-05-09T05:27:22.510Z,10.18
2019-05-09T05:29:24.525Z,10.32
2019-05-09T05:31:28.562Z,10.34
2019-05-09T05:33:43.209Z,10.31
2019-05-09T05:35:57.421Z,10.36
2019-05-09T05:37:59.692Z,10.40
2019-05-09T05:40:01.715Z,10.47
2019-05-09T05:42:03.834Z,10.47
2019-05-09T05:44:08.527Z,10.54
2019-05-09T05:46:58.679Z,10.57
2019-05-09T05:49:00.780Z,10.59
2019-05-09T05:51:03.079Z,10.60
2019-05-09T05:53:05.075Z,10.74
2019-05-09T05:55:07.643Z,10.72
2019-05-09T05:57:11.627Z,10.82
2019-05-09T05:59:13.998Z,10.89
2019-05-09T06:01:18.490Z,10.89
2019-05-09T06:03:20.461Z,11.12
2019-05-09T06:05:22.077Z,11.19
2019-05-09T06:07:24.414Z,11.28
2019-05-09T06:09:28.098Z,11.45
2019-05-09T06:11:30.671Z,11.52
2019-05-09T06:13:32.702Z,11.63
2019-05-09T06:15:35.085Z,11.62
2019-05-09T06:17:38.039Z,11.70
2019-05-09T06:19:40.596Z,11.71
2019-05-09T06:21:42.467Z,11.74
2019-05-09T06:23:44.458Z,11.78
2019-05-09T06:25:48.504Z,11.97
2019-05-09T06:27:51.075Z,12.12
2019-05-09T06:29:53.114Z,12.25
2019-05-09T06:31:55.218Z,12.05
2019-05-09T06:33:58.068Z,11.92
2019-05-09T06:36:02.527Z,12.10
2019-05-09T06:38:08.014Z,12.31
2019-05-09T06:40:17.309Z,12.46
2019-05-09T06:42:19.604Z,12.77
2019-05-09T06:44:33.386Z,12.69
2019-05-09T06:46:42.082Z,12.83
2019-05-09T06:48:44.114Z,12.65
2019-05-09T06:50:48.225Z,12.66
2019-05-09T06:52:50.609Z,12.80
2019-05-09T06:54:52.608Z,12.89
2019-05-09T06:56:54.679Z,12.74
2019-05-09T06:58:58.828Z,12.76
2019-05-09T07:01:29.825Z,12.84
2019-05-09T07:03:31.840Z,12.89
2019-05-09T07:05:52.431Z,13.03
2019-05-09T07:08:01.981Z,12.99
2019-05-09T07:10:04.604Z,12.99
2019-05-09T07:12:07.943Z,12.99
2019-05-09T07:14:31.914Z,13.05
2019-05-09T07:16:31.377Z,13.19
2019-05-09T07:18:33.581Z,13.23
2019-05-09T07:20:37.703Z,13.26
2019-05-09T07:22:59.167Z,13.24
2019-05-09T07:25:09.870Z,13.36
2019-05-09T07:27:09.361Z,13.50
2019-05-09T07:29:11.540Z,13.56
2019-05-09T07:31:37.952Z,13.51
2019-05-09T07:34:00.015Z,13.64
2019-05-09T07:36:02.167Z,13.73
2019-05-09T07:38:04.649Z,13.95
2019-05-09T07:40:08.394Z,13.70
2019-05-09T07:42:10.618Z,13.81
2019-05-09T07:44:12.872Z,13.88
2019-05-09T07:46:28.064Z,13.97
2019-05-09T07:48:29.729Z,13.92
2019-05-09T07:50:32.885Z,14.08
2019-05-09T07:52:34.918Z,14.19
2019-05-09T07:54:37.725Z,14.29
2019-05-09T07:56:40.175Z,14.11
2019-05-09T07:58:42.179Z,13.95
2019-05-09T08:00:44.170Z,13.95
2019-05-09T08:02:47.690Z,13.91
2019-05-09T08:04:49.903Z,13.93
2019-05-09T08:06:52.109Z,14.00
2019-05-09T08:08:54.622Z,14.24
2019-05-09T08:10:58.466Z,14.40
2019-05-09T08:13:00.366Z,14.15
2019-05-09T08:15:13.740Z,14.45
2019-05-09T08:17:08.560Z,14.51
2019-05-09T08:19:10.716Z,14.79
2019-05-09T08:21:13.224Z,15.18
2019-05-09T08:23:14.917Z,15.21
2019-05-09T08:25:18.355Z,15.32
2019-05-09T08:27:20.631Z,15.68
2019-05-09T08:29:22.668Z,15.74
2019-05-09T08:31:24.679Z,15.84
2019-05-09T08:33:30.325Z,15.48
2019-05-09T08:35:32.348Z,15.46
2019-05-09T08:37:34.487Z,16.04
2019-05-09T08:39:38.253Z,16.33
2019-05-09T08:41:40.532Z,15.98
2019-05-09T08:43:42.548Z,16.00
2019-05-09T08:45:48.340Z,16.24
2019-05-09T08:47:49.856Z,16.18
2019-05-09T08:50:07.837Z,16.46
2019-05-09T08:52:16.096Z,16.63
2019-05-09T08:54:34.371Z,16.72
2019-05-09T08:56:38.726Z,17.05
2019-05-09T08:58:41.098Z,17.06
2019-05-09T09:00:45.876Z,17.23
2019-05-09T09:02:49.059Z,17.32
2019-05-09T09:04:51.370Z,17.48
2019-05-09T09:06:53.441Z,17.71
2019-05-09T09:08:57.552Z,18.05
2019-05-09T09:10:59.603Z,18.32
2019-05-09T09:13:01.635Z,18.30
2019-05-09T09:15:07.747Z,17.95
2019-05-09T09:17:10.095Z,17.84
2019-05-09T09:19:12.339Z,17.61
2019-05-09T09:21:14.522Z,17.63
2019-05-09T09:23:18.085Z,17.57
2019-05-09T09:25:20.396Z,17.72
2019-05-09T09:27:22.401Z,18.05
2019-05-09T09:29:24.726Z,18.05
2019-05-09T09:31:28.556Z,18.37
2019-05-09T09:33:30.646Z,18.25
2019-05-09T09:35:32.964Z,17.70
2019-05-09T09:37:47.893Z,17.62
2019-05-09T09:39:44.582Z,17.24
2019-05-09T09:41:43.264Z,16.87
2019-05-09T09:43:47.460Z,16.86
2019-05-09T09:46:05.852Z,16.90
2019-05-09T09:47:53.508Z,17.93
2019-05-09T09:49:58.386Z,17.98
2019-05-09T09:51:59.472Z,17.98
2019-05-09T09:54:02.056Z,18.28
2019-05-09T09:56:04.194Z,18.84
2019-05-09T09:58:08.180Z,18.82
2019-05-09T10:00:33.420Z,18.30
2019-05-09T10:02:37.828Z,17.52
2019-05-09T10:04:40.738Z,16.95
2019-05-09T10:06:43.487Z,16.63
2019-05-09T10:08:45.520Z,16.15
2019-05-09T10:10:48.562Z,15.94
2019-05-09T10:12:50.927Z,16.48
2019-05-09T10:14:59.600Z,16.39
2019-05-09T10:17:11.078Z,16.01
2019-05-09T10:19:28.282Z,15.72
2019-05-09T10:21:33.884Z,15.67
2019-05-09T10:23:37.872Z,15.33
2019-05-09T10:25:40.047Z,15.28
2019-05-09T10:27:42.895Z,15.66
2019-05-09T10:29:45.049Z,16.39
2019-05-09T10:31:48.750Z,16.84
2019-05-09T10:33:51.141Z,17.03
2019-05-09T10:35:53.149Z,16.60
2019-05-09T10:37:55.591Z,16.61
2019-05-09T10:39:58.253Z,16.93
2019-05-09T10:42:02.414Z,17.33
2019-05-09T10:44:11.587Z,17.63
2019-05-09T10:46:52.544Z,17.53
2019-05-09T10:48:51.633Z,17.94
2019-05-09T10:50:54.838Z,18.01
2019-05-09T10:52:58.526Z,17.75
2019-05-09T10:55:00.774Z,18.04
2019-05-09T10:57:03.076Z,17.93
2019-05-09T10:59:07.581Z,17.51
2019-05-09T11:01:09.313Z,17.48
2019-05-09T11:03:11.744Z,17.85
2019-05-09T11:05:13.990Z,17.22
2019-05-09T11:07:18.170Z,17.49
2019-05-09T11:09:20.287Z,17.31
2019-05-09T11:11:22.559Z,17.73
2019-05-09T11:13:24.663Z,17.34
2019-05-09T11:15:27.310Z,16.98
2019-05-09T11:17:29.613Z,16.85
2019-05-09T11:19:31.594Z,16.67
2019-05-09T11:21:33.677Z,16.69
2019-05-09T11:23:35.878Z,17.10
2019-05-09T11:25:38.165Z,17.28
2019-05-09T11:27:40.139Z,17.56
2019-05-09T11:29:42.373Z,17.46
2019-05-09T11:31:44.413Z,17.38
2019-05-09T11:33:48.376Z,17.19
2019-05-09T11:35:50.787Z,17.17
2019-05-09T11:37:52.805Z,17.13
2019-05-09T11:39:55.176Z,17.01
2019-05-09T11:41:58.543Z,16.87
2019-05-09T11:44:00.863Z,16.75
2019-05-09T11:46:03.408Z,16.62
2019-05-09T11:48:07.936Z,16.61
2019-05-09T11:50:09.421Z,17.04
2019-05-09T11:52:11.884Z,17.35
2019-05-09T11:54:16.392Z,17.35
2019-05-09T11:56:17.923Z,16.92
2019-05-09T11:58:20.625Z,16.74
2019-05-09T12:00:22.629Z,16.97
2019-05-09T12:02:25.026Z,16.76
2019-05-09T12:04:28.123Z,16.35
2019-05-09T12:06:31.523Z,16.37
2019-05-09T12:08:33.583Z,16.51
2019-05-09T12:10:38.237Z,16.75
2019-05-09T12:12:40.175Z,16.74
2019-05-09T12:14:42.289Z,16.77
2019-05-09T12:16:44.622Z,16.74
2019-05-09T12:18:48.816Z,16.73
2019-05-09T12:20:50.956Z,16.85
2019-05-09T12:22:53.192Z,17.05
2019-05-09T12:24:55.199Z,16.77
2019-05-09T12:26:57.996Z,16.55
2019-05-09T12:29:01.606Z,16.80
2019-05-09T12:31:04.690Z,16.84
2019-05-09T12:33:08.654Z,16.64
2019-05-09T12:35:10.609Z,16.80
2019-05-09T12:37:12.820Z,17.03
2019-05-09T12:39:15.257Z,16.94
2019-05-09T12:41:18.988Z,16.97
2019-05-09T12:43:21.366Z,17.02
2019-05-09T12:45:23.477Z,17.17
2019-05-09T12:47:28.858Z,17.25
2019-05-09T12:49:29.613Z,17.38
2019-05-09T12:51:31.654Z,17.12
2019-05-09T12:53:33.908Z,17.08
2019-05-09T12:55:38.303Z,16.60
2019-05-09T12:57:39.963Z,16.31
2019-05-09T12:59:48.942Z,16.35
2019-05-09T13:01:49.216Z,16.14
2019-05-09T13:03:51.416Z,16.22
2019-05-09T13:05:54.067Z,16.41
2019-05-09T13:07:57.731Z,16.53
2019-05-09T13:09:59.958Z,16.61
2019-05-09T13:12:01.968Z,16.75
2019-05-09T13:14:04.039Z,16.47
2019-05-09T13:16:43.428Z,16.33
2019-05-09T13:18:53.861Z,16.34
2019-05-09T13:20:58.046Z,16.19
2019-05-09T13:22:59.966Z,16.06
2019-05-09T13:25:03.663Z,16.16
2019-05-09T13:27:07.888Z,16.10
2019-05-09T13:29:09.724Z,16.18
2019-05-09T13:31:12.912Z,15.97
2019-05-09T13:33:18.887Z,16.00
2019-05-09T13:35:21.046Z,16.16
2019-05-09T13:37:23.476Z,16.08
2019-05-09T13:39:28.225Z,16.11
2019-05-09T13:41:30.589Z,16.07
2019-05-09T13:43:32.829Z,16.14
2019-05-09T13:45:34.934Z,16.01
2019-05-09T13:47:37.985Z,16.22
2019-05-09T13:49:40.351Z,16.15
2019-05-09T13:51:51.692Z,16.16
2019-05-09T13:53:48.426Z,16.26
2019-05-09T13:55:51.168Z,16.43
2019-05-09T13:57:53.236Z,16.62
2019-05-09T13:59:55.449Z,16.50
2019-05-09T14:01:58.141Z,16.41
2019-05-09T14:04:00.294Z,16.63
2019-05-09T14:06:02.448Z,16.85
2019-05-09T14:08:04.880Z,17.09
2019-05-09T14:10:08.987Z,16.91
2019-05-09T14:12:10.802Z,16.66
2019-05-09T14:14:12.972Z,16.63
2019-05-09T14:16:21.836Z,16.38
2019-05-09T14:18:20.259Z,16.07
2019-05-09T14:20:22.442Z,15.73
2019-05-09T14:22:24.598Z,15.66
2019-05-09T14:24:27.893Z,15.85
2019-05-09T14:26:30.287Z,15.79
2019-05-09T14:28:32.523Z,15.74
2019-05-09T14:30:34.595Z,15.60
2019-05-09T14:32:39.814Z,15.26
2019-05-09T14:34:42.640Z,15.06
2019-05-09T14:36:46.151Z,15.17
2019-05-09T14:38:49.395Z,15.28
2019-05-09T14:40:51.219Z,15.38
2019-05-09T14:42:53.448Z,15.40
2019-05-09T14:44:55.742Z,15.50
2019-05-09T14:46:58.368Z,15.59
2019-05-09T14:49:00.731Z,15.95
2019-05-09T14:51:03.006Z,16.39
2019-05-09T14:53:05.001Z,16.43
2019-05-09T14:55:08.277Z,16.17
2019-05-09T14:57:10.816Z,16.07
2019-05-09T14:59:12.892Z,16.09
2019-05-09T15:01:15.107Z,16.32
2019-05-09T15:03:18.952Z,16.23
2019-05-09T15:05:21.019Z,15.95
2019-05-09T15:07:23.283Z,16.10
2019-05-09T15:09:25.546Z,16.11
2019-05-09T15:11:28.416Z,16.22
2019-05-09T15:13:30.638Z,16.13
2019-05-09T15:15:33.137Z,16.09
2019-05-09T15:17:34.949Z,16.04
2019-05-09T15:19:38.575Z,15.99
2019-05-09T15:21:41.202Z,15.87
2019-05-09T15:23:42.960Z,15.84
2019-05-09T15:25:45.031Z,16.04
2019-05-09T15:27:47.748Z,16.04
2019-05-09T15:29:49.943Z,16.08
2019-05-09T15:31:55.149Z,16.06
2019-05-09T15:33:57.350Z,16.11
2019-05-09T15:35:59.356Z,16.13
2019-05-09T15:38:01.464Z,16.11
2019-05-09T15:40:03.956Z,16.25
2019-05-09T15:42:07.436Z,16.09
2019-05-09T15:44:09.460Z,15.96
2019-05-09T15:46:38.395Z,15.88
2019-05-09T15:48:40.980Z,15.71
2019-05-09T15:50:42.966Z,15.80
2019-05-09T15:52:45.301Z,15.92
2019-05-09T15:54:48.459Z,15.86
2019-05-09T15:56:50.572Z,15.98
2019-05-09T15:58:53.640Z,15.77
2019-05-09T16:00:55.674Z,15.83
2019-05-09T16:02:59.001Z,16.20
2019-05-09T16:05:01.604Z,16.15
2019-05-09T16:07:03.448Z,16.04
2019-05-09T16:09:09.281Z,15.90
2019-05-09T16:11:10.319Z,16.22
2019-05-09T16:13:12.060Z,16.11
2019-05-09T16:15:14.122Z,16.03
2019-05-09T16:17:19.111Z,15.84
2019-05-09T16:19:20.788Z,16.02
2019-05-09T16:21:22.891Z,16.07
2019-05-09T16:23:25.447Z,15.90
2019-05-09T16:25:28.335Z,15.73
2019-05-09T16:27:30.568Z,15.68
2019-05-09T16:29:33.065Z,15.58
2019-05-09T16:31:34.720Z,15.74
2019-05-09T16:33:37.071Z,15.83
2019-05-09T16:35:39.012Z,15.75
2019-05-09T16:38:01.391Z,15.84
2019-05-09T16:39:47.597Z,15.82
2019-05-09T16:41:50.351Z,15.86
2019-05-09T16:43:52.356Z,15.90
2019-05-09T16:45:54.423Z,15.86
2019-05-09T16:47:57.562Z,15.39
2019-05-09T16:49:59.645Z,15.12
2019-05-09T16:52:01.789Z,15.16
2019-05-09T16:54:04.186Z,15.20
2019-05-09T16:56:08.082Z,15.17
2019-05-09T16:58:09.851Z,15.03
2019-05-09T17:00:18.212Z,15.17
2019-05-09T17:02:24.859Z,15.13
2019-05-09T17:04:24.413Z,15.12
2019-05-09T17:06:27.451Z,15.13
2019-05-09T17:08:29.612Z,15.13
2019-05-09T17:10:31.865Z,15.09
2019-05-09T17:12:34.006Z,15.12
2019-05-09T17:14:36.126Z,14.94
2019-05-09T17:16:38.280Z,14.84
2019-05-09T17:18:41.074Z,14.83
2019-05-09T17:20:53.677Z,14.95
2019-05-09T17:23:14.814Z,15.04
2019-05-09T17:25:15.233Z,14.79
2019-05-09T17:27:18.856Z,14.64
2019-05-09T17:29:21.106Z,14.66
2019-05-09T17:31:23.297Z,14.73
2019-05-09T17:33:28.453Z,14.72
2019-05-09T17:35:29.732Z,14.72
2019-05-09T17:37:32.021Z,14.73
2019-05-09T17:39:34.188Z,14.67
2019-05-09T17:41:37.937Z,14.81
2019-05-09T17:43:40.553Z,14.92
2019-05-09T17:45:42.400Z,14.80
2019-05-09T17:47:44.642Z,14.52
2019-05-09T17:49:48.233Z,14.47
2019-05-09T17:51:50.499Z,14.54
2019-05-09T17:53:52.523Z,14.44
2019-05-09T17:55:54.781Z,14.47
2019-05-09T17:57:58.651Z,14.24
2019-05-09T18:00:01.112Z,14.24
2019-05-09T18:02:03.549Z,14.29
2019-05-09T18:04:05.548Z,14.20
2019-05-09T18:06:08.398Z,14.13
2019-05-09T18:08:10.727Z,14.03
2019-05-09T18:10:13.826Z,13.95
2019-05-09T18:12:15.668Z,13.86
2019-05-09T18:14:18.486Z,13.87
2019-05-09T18:16:21.164Z,13.98
2019-05-09T18:18:23.308Z,13.95
2019-05-09T18:20:28.236Z,14.00
2019-05-09T18:22:29.711Z,14.10
2019-05-09T18:24:31.809Z,13.96
2019-05-09T18:26:34.007Z,13.89
2019-05-09T18:28:38.394Z,13.96
2019-05-09T18:30:41.835Z,13.87
2019-05-09T18:33:03.484Z,13.99
2019-05-09T18:35:17.276Z,13.98
2019-05-09T18:37:19.369Z,13.86
2019-05-09T18:39:22.399Z,13.85
2019-05-09T18:41:24.775Z,13.95
2019-05-09T18:43:27.568Z,13.97
2019-05-09T18:45:30.178Z,13.76
2019-05-09T18:47:32.427Z,13.84
2019-05-09T18:49:34.600Z,13.87
2019-05-09T18:51:37.035Z,13.88
2019-05-09T18:53:38.784Z,13.90
2019-05-09T18:55:41.382Z,13.75
2019-05-09T18:57:43.960Z,13.84
2019-05-09T18:59:46.275Z,13.80
2019-05-09T19:01:49.479Z,13.75
2019-05-09T19:03:52.090Z,13.77
2019-05-09T19:05:54.002Z,13.84
2019-05-09T19:07:56.367Z,13.74
2019-05-09T19:09:58.765Z,13.71
2019-05-09T19:12:00.764Z,13.54
2019-05-09T19:14:04.708Z,13.55
2019-05-09T19:16:27.304Z,13.54
2019-05-09T19:18:51.278Z,13.56
2019-05-09T19:20:57.895Z,13.54
2019-05-09T19:23:00.401Z,13.40
2019-05-09T19:25:02.119Z,13.43
2019-05-09T19:27:04.362Z,13.51
2019-05-09T19:29:08.258Z,13.63
2019-05-09T19:31:11.282Z,13.73
2019-05-09T19:33:13.290Z,13.64
2019-05-09T19:35:15.630Z,13.59
2019-05-09T19:37:17.682Z,13.59
2019-05-09T19:39:20.118Z,13.64
2019-05-09T19:41:22.427Z,13.58
2019-05-09T19:43:24.599Z,13.39
2019-05-09T19:45:26.741Z,13.33
2019-05-09T19:47:29.917Z,13.25
2019-05-09T19:49:32.005Z,13.23
2019-05-09T19:51:34.462Z,13.26
2019-05-09T19:53:36.268Z,13.16
2019-05-09T19:55:38.354Z,13.15
2019-05-09T19:57:40.493Z,13.22
2019-05-09T19:59:42.682Z,13.30
2019-05-09T20:01:44.697Z,13.30
2019-05-09T20:03:46.816Z,13.24
2019-05-09T20:05:49.120Z,13.26
2019-05-09T20:07:50.933Z,13.33
2019-05-09T20:09:59.806Z,13.37
2019-05-09T20:12:27.895Z,13.27
2019-05-09T20:14:33.199Z,13.24
2019-05-09T20:16:37.607Z,13.24
2019-05-09T20:18:40.023Z,13.27
2019-05-09T20:20:42.033Z,13.21
2019-05-09T20:22:52.870Z,13.15
2019-05-09T20:24:52.162Z,13.17
2019-05-09T20:26:54.436Z,13.13
2019-05-09T20:28:56.799Z,13.15
2019-05-09T20:30:59.373Z,13.13
2019-05-09T20:33:00.974Z,13.06
2019-05-09T20:35:03.508Z,12.97
2019-05-09T20:37:05.498Z,13.09
2019-05-09T20:39:07.986Z,13.10
2019-05-09T20:41:10.427Z,13.16
2019-05-09T20:43:12.829Z,13.25
2019-05-09T20:45:14.649Z,13.26
2019-05-09T20:47:17.134Z,13.22
2019-05-09T20:49:19.547Z,13.23
2019-05-09T20:51:21.373Z,13.19
2019-05-09T20:53:23.441Z,13.05
2019-05-09T20:55:25.721Z,13.03
2019-05-09T20:57:27.896Z,12.97
2019-05-09T20:59:30.004Z,12.93
2019-05-09T21:01:32.429Z,12.92
2019-05-09T21:03:34.576Z,12.90
2019-05-09T21:05:36.710Z,12.95
2019-05-09T21:07:39.002Z,12.97
2019-05-09T21:09:41.056Z,12.85
2019-05-09T21:11:44.235Z,12.85
2019-05-09T21:13:48.776Z,12.78
2019-05-09T21:15:50.780Z,12.68
2019-05-09T21:17:52.927Z,12.69
2019-05-09T21:19:55.485Z,12.65
2019-05-09T21:21:57.684Z,12.73
2019-05-09T21:23:59.691Z,12.66
2019-05-09T21:26:02.382Z,12.59
2019-05-09T21:28:04.439Z,12.66
2019-05-09T21:30:07.967Z,12.52
2019-05-09T21:32:10.309Z,12.54
2019-05-09T21:34:12.507Z,12.54
2019-05-09T21:36:14.404Z,12.56
2019-05-09T21:40:17.732Z,12.54
2019-05-09T21:42:20.033Z,12.45
2019-05-09T21:44:22.114Z,12.36
2019-05-09T21:46:24.366Z,12.34
2019-05-09T21:48:26.409Z,12.28
2019-05-09T21:50:28.473Z,12.24
2019-05-09T21:52:31.442Z,12.22
2019-05-09T21:54:33.497Z,12.20
2019-05-09T21:56:35.612Z,12.15
2019-05-09T21:58:38.030Z,12.11
2019-05-09T22:00:40.771Z,11.88
2019-05-09T22:02:43.160Z,11.74
2019-05-09T22:04:45.762Z,11.81
2019-05-09T22:06:47.425Z,11.63
2019-05-09T22:08:49.382Z,11.54
2019-05-09T22:10:51.721Z,11.45
2019-05-09T22:12:53.737Z,11.40
2019-05-09T22:14:55.774Z,11.31
2019-05-09T22:17:00.169Z,11.26
2019-05-09T22:19:02.421Z,11.19
2019-05-09T22:21:05.097Z,11.29
2019-05-09T22:23:07.796Z,11.38
2019-05-09T22:25:09.609Z,11.27
2019-05-09T22:27:11.979Z,11.19
2019-05-09T22:29:14.173Z,11.22
2019-05-09T22:31:16.188Z,11.19
2019-05-09T22:33:18.190Z,11.04
2019-05-09T22:35:20.480Z,11.18
2019-05-09T22:37:22.300Z,11.10
2019-05-09T22:39:24.278Z,11.17
2019-05-09T22:41:26.647Z,11.20
2019-05-09T22:43:28.329Z,11.22
2019-05-09T22:45:30.311Z,11.28
2019-05-09T22:47:32.636Z,11.23
2019-05-09T22:49:34.630Z,11.24
2019-05-09T22:51:36.988Z,11.29
2019-05-09T22:53:39.432Z,11.23
2019-05-09T22:55:41.153Z,11.20
2019-05-09T22:57:43.168Z,11.16
2019-05-09T22:59:45.415Z,11.14
2019-05-09T23:01:47.511Z,11.09
2019-05-09T23:03:49.746Z,11.08
2019-05-09T23:05:51.915Z,11.17
2019-05-09T23:07:54.117Z,11.23
2019-05-09T23:09:56.115Z,11.21
2019-05-09T23:11:58.247Z,11.25
2019-05-09T23:14:00.300Z,11.22
2019-05-09T23:16:02.320Z,11.14
2019-05-09T23:18:04.494Z,11.10
2019-05-09T23:20:09.085Z,11.13
2019-05-09T23:22:11.245Z,11.09
2019-05-09T23:24:28.016Z,11.07
2019-05-09T23:26:21.135Z,11.20
2019-05-09T23:28:23.752Z,11.23
2019-05-09T23:30:26.279Z,11.26
2019-05-09T23:32:37.439Z,11.24
2019-05-09T23:34:39.448Z,11.15
2019-05-09T23:36:41.690Z,11.17
2019-05-09T23:39:01.848Z,11.08
2019-05-09T23:41:05.271Z,11.06
2019-05-09T23:43:07.529Z,11.11
2019-05-09T23:45:09.680Z,11.12
2019-05-09T23:47:11.736Z,11.17
2019-05-09T23:49:14.023Z,11.07
2019-05-09T23:51:16.088Z,11.07
2019-05-09T23:53:30.762Z,11.07
2019-05-09T23:55:51.336Z,11.10
2019-05-09T23:58:11.655Z,11.15
